sensor_id;sensor_type;location;lat;lon;timestamp;temperature;humidity
3614;DHT22;1821;50.936;6.854;2023-03-26T00:00:12;9.90;99.90
3614;DHT22;1821;50.936;6.854;2023-03-26T00:01:01;9.70;99.90
3614;DHT22;1821;50.936;6.854;2023-03-26T00:01:46;9.90;99.90
3614;DHT22;1821;50.936;6.854;2023-03-26T00:02:30;10.00;99.90
3614;DHT22;1821;50.936;6.854;2023-03-26T00:03:13;9.90;99.90
3614;DHT22;1821;50.936;6.854;2023-03-26T00:03:57;10.20;99.90
3614;DHT22;1821;50.936;6.854;2023-03-26T00:04:39;10.10;99.90
3614;DHT22;1821;50.936;6.854;2023-03-26T00:05:23;10.20;99.90
3614;DHT22;1821;50.936;6.854;2023-03-26T00:06:10;9.90;99.90
3614;DHT22;1821;50.936;6.854;2023-03-26T00:06:53;9.70;99.90
3614;DHT22;1821;50.936;6.854;2023-03-26T00:07:35;10.00;99.90
3614;DHT22;1821;50.936;6.854;2023-03-26T00:08:17;10.10;99.90
3614;DHT22;1821;50.936;6.854;2023-03-26T00:08:59;9.90;99.90
3614;DHT22;1821;50.936;6.854;2023-03-26T00:09:41;9.80;99.90
3614;DHT22;1821;50.936;6.854;2023-03-26T00:10:23;9.80;99.90
3614;DHT22;1821;50.936;6.854;2023-03-26T00:11:08;10.10;99.90
3614;DHT22;1821;50.936;6.854;2023-03-26T00:11:50;10.10;99.90
3614;DHT22;1821;50.936;6.854;2023-03-26T00:12:32;10.20;99.90
3614;DHT22;1821;50.936;6.854;2023-03-26T00:13:14;10.20;99.90
3614;DHT22;1821;50.936;6.854;2023-03-26T00:13:56;10.20;99.90
3614;DHT22;1821;50.936;6.854;2023-03-26T00:14:39;10.70;99.90
3614;DHT22;1821;50.936;6.854;2023-03-26T00:15:21;10.30;99.90
3614;DHT22;1821;50.936;6.854;2023-03-26T00:16:03;10.00;99.90
3614;DHT22;1821;50.936;6.854;2023-03-26T00:16:46;9.70;99.90
3614;DHT22;1821;50.936;6.854;2023-03-26T00:17:29;9.90;99.90
3614;DHT22;1821;50.936;6.854;2023-03-26T00:18:12;10.00;99.90
3614;DHT22;1821;50.936;6.854;2023-03-26T00:18:54;9.90;99.90
3614;DHT22;1821;50.936;6.854;2023-03-26T00:19:36;9.60;99.90
3614;DHT22;1821;50.936;6.854;2023-03-26T00:20:19;9.90;99.90
3614;DHT22;1821;50.936;6.854;2023-03-26T00:21:03;10.10;99.90
3614;DHT22;1821;50.936;6.854;2023-03-26T00:21:45;10.30;99.90
3614;DHT22;1821;50.936;6.854;2023-03-26T00:22:28;9.80;99.90
3614;DHT22;1821;50.936;6.854;2023-03-26T00:23:10;10.00;99.90
3614;DHT22;1821;50.936;6.854;2023-03-26T00:23:58;9.90;99.90
3614;DHT22;1821;50.936;6.854;2023-03-26T00:24:40;9.90;99.90
3614;DHT22;1821;50.936;6.854;2023-03-26T00:25:27;9.90;99.90
3614;DHT22;1821;50.936;6.854;2023-03-26T00:26:09;9.80;99.90
3614;DHT22;1821;50.936;6.854;2023-03-26T00:26:51;9.70;99.90
3614;DHT22;1821;50.936;6.854;2023-03-26T00:27:34;9.80;99.90
3614;DHT22;1821;50.936;6.854;2023-03-26T00:28:17;9.90;99.90
3614;DHT22;1821;50.936;6.854;2023-03-26T00:29:03;9.60;99.90
3614;DHT22;1821;50.936;6.854;2023-03-26T00:29:45;9.60;99.90
3614;DHT22;1821;50.936;6.854;2023-03-26T00:30:28;9.50;99.90
3614;DHT22;1821;50.936;6.854;2023-03-26T00:31:12;9.90;99.90
3614;DHT22;1821;50.936;6.854;2023-03-26T00:31:57;9.60;99.90
3614;DHT22;1821;50.936;6.854;2023-03-26T00:32:39;9.80;99.90
3614;DHT22;1821;50.936;6.854;2023-03-26T00:33:22;9.50;99.90
3614;DHT22;1821;50.936;6.854;2023-03-26T00:34:04;9.70;99.90
3614;DHT22;1821;50.936;6.854;2023-03-26T00:34:46;9.80;99.90
3614;DHT22;1821;50.936;6.854;2023-03-26T00:35:28;9.90;99.90
3614;DHT22;1821;50.936;6.854;2023-03-26T00:36:14;9.90;99.90
3614;DHT22;1821;50.936;6.854;2023-03-26T00:37:00;9.60;99.90
3614;DHT22;1821;50.936;6.854;2023-03-26T00:37:43;9.80;99.90
3614;DHT22;1821;50.936;6.854;2023-03-26T00:38:27;9.90;99.90
3614;DHT22;1821;50.936;6.854;2023-03-26T00:39:09;9.60;99.90
3614;DHT22;1821;50.936;6.854;2023-03-26T00:39:52;9.50;99.90
3614;DHT22;1821;50.936;6.854;2023-03-26T00:40:41;9.70;99.90
3614;DHT22;1821;50.936;6.854;2023-03-26T00:41:28;9.70;99.90
3614;DHT22;1821;50.936;6.854;2023-03-26T00:42:11;9.90;99.90
3614;DHT22;1821;50.936;6.854;2023-03-26T00:42:55;9.70;99.90
3614;DHT22;1821;50.936;6.854;2023-03-26T00:43:37;9.50;99.90
3614;DHT22;1821;50.936;6.854;2023-03-26T00:44:19;9.80;99.90
3614;DHT22;1821;50.936;6.854;2023-03-26T00:45:01;9.60;99.90
3614;DHT22;1821;50.936;6.854;2023-03-26T00:45:47;9.80;99.90
3614;DHT22;1821;50.936;6.854;2023-03-26T00:46:30;9.80;99.90
3614;DHT22;1821;50.936;6.854;2023-03-26T00:47:57;9.60;99.90
3614;DHT22;1821;50.936;6.854;2023-03-26T00:48:39;9.80;99.90
3614;DHT22;1821;50.936;6.854;2023-03-26T00:49:26;10.00;99.90
3614;DHT22;1821;50.936;6.854;2023-03-26T00:50:11;9.60;99.90
3614;DHT22;1821;50.936;6.854;2023-03-26T00:50:56;9.50;99.90
3614;DHT22;1821;50.936;6.854;2023-03-26T00:51:38;9.40;99.90
3614;DHT22;1821;50.936;6.854;2023-03-26T00:52:22;9.50;99.90
3614;DHT22;1821;50.936;6.854;2023-03-26T00:53:04;9.60;99.90
3614;DHT22;1821;50.936;6.854;2023-03-26T00:53:48;9.50;99.90
3614;DHT22;1821;50.936;6.854;2023-03-26T00:54:30;9.70;99.90
3614;DHT22;1821;50.936;6.854;2023-03-26T00:55:12;9.40;99.90
3614;DHT22;1821;50.936;6.854;2023-03-26T00:55:54;9.70;99.90
3614;DHT22;1821;50.936;6.854;2023-03-26T00:56:41;9.50;99.90
3614;DHT22;1821;50.936;6.854;2023-03-26T00:57:23;9.70;99.90
3614;DHT22;1821;50.936;6.854;2023-03-26T00:58:16;9.50;99.90
3614;DHT22;1821;50.936;6.854;2023-03-26T00:59:01;9.60;99.90
3614;DHT22;1821;50.936;6.854;2023-03-26T00:59:45;9.30;99.90
3614;DHT22;1821;50.936;6.854;2023-03-26T01:00:33;9.40;99.90
3614;DHT22;1821;50.936;6.854;2023-03-26T01:01:18;9.70;99.90
3614;DHT22;1821;50.936;6.854;2023-03-26T01:02:01;9.60;99.90
3614;DHT22;1821;50.936;6.854;2023-03-26T01:02:44;9.50;99.90
3614;DHT22;1821;50.936;6.854;2023-03-26T01:03:28;9.50;99.90
3614;DHT22;1821;50.936;6.854;2023-03-26T01:05:57;9.40;99.90
3614;DHT22;1821;50.936;6.854;2023-03-26T01:06:34;9.50;99.90
3614;DHT22;1821;50.936;6.854;2023-03-26T01:07:18;9.10;99.90
3614;DHT22;1821;50.936;6.854;2023-03-26T01:08:55;9.00;99.90
3614;DHT22;1821;50.936;6.854;2023-03-26T01:09:43;9.10;99.90
3614;DHT22;1821;50.936;6.854;2023-03-26T01:10:30;9.20;99.90
3614;DHT22;1821;50.936;6.854;2023-03-26T01:11:26;9.20;99.90
3614;DHT22;1821;50.936;6.854;2023-03-26T01:12:12;9.20;99.90
3614;DHT22;1821;50.936;6.854;2023-03-26T01:12:56;8.90;99.90
3614;DHT22;1821;50.936;6.854;2023-03-26T01:13:46;8.60;99.90
3614;DHT22;1821;50.936;6.854;2023-03-26T01:14:29;9.20;99.90
3614;DHT22;1821;50.936;6.854;2023-03-26T01:15:11;8.60;99.90
3614;DHT22;1821;50.936;6.854;2023-03-26T01:15:54;8.90;99.90
3614;DHT22;1821;50.936;6.854;2023-03-26T01:16:43;8.80;99.90
3614;DHT22;1821;50.936;6.854;2023-03-26T01:17:27;8.90;99.90
3614;DHT22;1821;50.936;6.854;2023-03-26T01:18:15;8.70;99.90
3614;DHT22;1821;50.936;6.854;2023-03-26T01:18:58;8.70;99.90
3614;DHT22;1821;50.936;6.854;2023-03-26T01:20:38;8.90;99.90
3614;DHT22;1821;50.936;6.854;2023-03-26T01:21:29;8.70;99.90
3614;DHT22;1821;50.936;6.854;2023-03-26T01:22:23;8.70;99.90
3614;DHT22;1821;50.936;6.854;2023-03-26T01:23:06;8.50;99.90
3614;DHT22;1821;50.936;6.854;2023-03-26T01:23:56;8.80;99.90
3614;DHT22;1821;50.936;6.854;2023-03-26T01:24:39;8.60;99.90
3614;DHT22;1821;50.936;6.854;2023-03-26T01:25:22;8.50;99.90
3614;DHT22;1821;50.936;6.854;2023-03-26T01:28:12;8.60;99.90
3614;DHT22;1821;50.936;6.854;2023-03-26T01:29:01;8.70;99.90
3614;DHT22;1821;50.936;6.854;2023-03-26T01:31:21;8.50;99.90
3614;DHT22;1821;50.936;6.854;2023-03-26T01:32:32;8.80;99.90
3614;DHT22;1821;50.936;6.854;2023-03-26T01:33:34;8.80;99.90
3614;DHT22;1821;50.936;6.854;2023-03-26T01:36:52;8.50;99.90
3614;DHT22;1821;50.936;6.854;2023-03-26T01:39:02;8.50;99.90
3614;DHT22;1821;50.936;6.854;2023-03-26T01:39:58;8.20;99.90
3614;DHT22;1821;50.936;6.854;2023-03-26T01:40:54;8.50;99.90
3614;DHT22;1821;50.936;6.854;2023-03-26T01:41:46;8.20;99.90
3614;DHT22;1821;50.936;6.854;2023-03-26T01:42:34;8.20;99.90
3614;DHT22;1821;50.936;6.854;2023-03-26T01:44:25;8.30;99.90
3614;DHT22;1821;50.936;6.854;2023-03-26T01:45:17;8.40;99.90
3614;DHT22;1821;50.936;6.854;2023-03-26T01:46:05;8.10;99.90
3614;DHT22;1821;50.936;6.854;2023-03-26T01:46:47;8.40;99.90
3614;DHT22;1821;50.936;6.854;2023-03-26T01:47:31;8.30;99.90
3614;DHT22;1821;50.936;6.854;2023-03-26T01:48:13;8.10;99.90
3614;DHT22;1821;50.936;6.854;2023-03-26T01:48:55;8.30;99.90
3614;DHT22;1821;50.936;6.854;2023-03-26T01:49:37;8.50;99.90
3614;DHT22;1821;50.936;6.854;2023-03-26T01:50:21;8.40;99.90
3614;DHT22;1821;50.936;6.854;2023-03-26T01:51:04;8.50;99.90
3614;DHT22;1821;50.936;6.854;2023-03-26T01:51:47;8.20;99.90
3614;DHT22;1821;50.936;6.854;2023-03-26T01:52:32;8.10;99.90
3614;DHT22;1821;50.936;6.854;2023-03-26T01:53:14;8.40;99.90
3614;DHT22;1821;50.936;6.854;2023-03-26T01:53:56;8.40;99.90
3614;DHT22;1821;50.936;6.854;2023-03-26T01:54:39;8.90;99.90
3614;DHT22;1821;50.936;6.854;2023-03-26T01:55:27;8.20;99.90
3614;DHT22;1821;50.936;6.854;2023-03-26T01:56:18;8.20;99.90
3614;DHT22;1821;50.936;6.854;2023-03-26T01:58:38;8.10;99.90
3614;DHT22;1821;50.936;6.854;2023-03-26T02:00:32;8.20;99.90
3614;DHT22;1821;50.936;6.854;2023-03-26T02:03:36;8.20;99.90
3614;DHT22;1821;50.936;6.854;2023-03-26T02:04:25;8.10;99.90
3614;DHT22;1821;50.936;6.854;2023-03-26T02:06:39;8.20;99.90
3614;DHT22;1821;50.936;6.854;2023-03-26T02:07:33;9.20;99.90
3614;DHT22;1821;50.936;6.854;2023-03-26T02:08:31;8.50;1.00
3614;DHT22;1821;50.936;6.854;2023-03-26T02:09:20;8.40;97.40
3614;DHT22;1821;50.936;6.854;2023-03-26T02:10:12;8.60;1.00
3614;DHT22;1821;50.936;6.854;2023-03-26T02:10:57;8.40;99.90
3614;DHT22;1821;50.936;6.854;2023-03-26T02:11:43;8.50;99.90
3614;DHT22;1821;50.936;6.854;2023-03-26T02:12:26;8.60;99.90
3614;DHT22;1821;50.936;6.854;2023-03-26T02:13:10;8.80;1.00
3614;DHT22;1821;50.936;6.854;2023-03-26T02:13:54;8.40;99.90
3614;DHT22;1821;50.936;6.854;2023-03-26T02:14:37;8.90;99.90
3614;DHT22;1821;50.936;6.854;2023-03-26T02:15:19;8.80;99.90
3614;DHT22;1821;50.936;6.854;2023-03-26T02:16:04;8.60;99.90
3614;DHT22;1821;50.936;6.854;2023-03-26T02:16:46;8.70;99.90
3614;DHT22;1821;50.936;6.854;2023-03-26T02:17:29;10.70;99.90
3614;DHT22;1821;50.936;6.854;2023-03-26T02:18:13;8.60;99.90
3614;DHT22;1821;50.936;6.854;2023-03-26T02:18:55;8.70;99.90
3614;DHT22;1821;50.936;6.854;2023-03-26T02:19:42;8.80;99.90
3614;DHT22;1821;50.936;6.854;2023-03-26T02:20:24;8.90;99.90
3614;DHT22;1821;50.936;6.854;2023-03-26T02:21:15;9.50;99.90
3614;DHT22;1821;50.936;6.854;2023-03-26T02:22:01;8.80;99.90
3614;DHT22;1821;50.936;6.854;2023-03-26T02:22:46;8.90;99.90
3614;DHT22;1821;50.936;6.854;2023-03-26T02:23:29;8.80;99.90
3614;DHT22;1821;50.936;6.854;2023-03-26T02:24:10;9.10;99.90
3614;DHT22;1821;50.936;6.854;2023-03-26T02:24:52;8.70;99.90
3614;DHT22;1821;50.936;6.854;2023-03-26T02:25:36;8.90;99.90
3614;DHT22;1821;50.936;6.854;2023-03-26T02:26:20;9.20;99.90
3614;DHT22;1821;50.936;6.854;2023-03-26T02:27:03;9.20;99.90
3614;DHT22;1821;50.936;6.854;2023-03-26T02:27:47;8.90;99.90
3614;DHT22;1821;50.936;6.854;2023-03-26T02:28:30;8.70;99.90
3614;DHT22;1821;50.936;6.854;2023-03-26T02:29:15;8.80;99.90
3614;DHT22;1821;50.936;6.854;2023-03-26T02:30:02;9.20;99.90
3614;DHT22;1821;50.936;6.854;2023-03-26T02:30:45;8.80;99.90
3614;DHT22;1821;50.936;6.854;2023-03-26T02:31:30;9.20;99.90
3614;DHT22;1821;50.936;6.854;2023-03-26T02:32:12;8.90;99.90
3614;DHT22;1821;50.936;6.854;2023-03-26T02:33:42;8.90;99.90
3614;DHT22;1821;50.936;6.854;2023-03-26T02:34:25;8.70;99.90
3614;DHT22;1821;50.936;6.854;2023-03-26T02:35:07;8.70;99.90
3614;DHT22;1821;50.936;6.854;2023-03-26T02:35:49;8.80;99.90
3614;DHT22;1821;50.936;6.854;2023-03-26T02:36:31;8.80;99.90
3614;DHT22;1821;50.936;6.854;2023-03-26T02:37:13;8.80;99.90
3614;DHT22;1821;50.936;6.854;2023-03-26T02:37:57;8.70;99.90
3614;DHT22;1821;50.936;6.854;2023-03-26T02:38:42;8.80;99.90
3614;DHT22;1821;50.936;6.854;2023-03-26T02:39:24;8.90;99.90
3614;DHT22;1821;50.936;6.854;2023-03-26T02:40:07;8.90;99.90
3614;DHT22;1821;50.936;6.854;2023-03-26T02:40:53;9.00;99.90
3614;DHT22;1821;50.936;6.854;2023-03-26T02:41:35;8.70;99.90
3614;DHT22;1821;50.936;6.854;2023-03-26T02:42:20;8.80;99.90
3614;DHT22;1821;50.936;6.854;2023-03-26T02:43:02;9.50;99.90
3614;DHT22;1821;50.936;6.854;2023-03-26T02:43:44;9.10;99.90
3614;DHT22;1821;50.936;6.854;2023-03-26T02:44:26;8.90;99.90
3614;DHT22;1821;50.936;6.854;2023-03-26T02:45:08;9.10;99.90
3614;DHT22;1821;50.936;6.854;2023-03-26T02:45:50;8.10;99.90
3614;DHT22;1821;50.936;6.854;2023-03-26T02:46:35;9.20;99.90
3614;DHT22;1821;50.936;6.854;2023-03-26T02:47:17;9.00;99.90
3614;DHT22;1821;50.936;6.854;2023-03-26T02:47:59;9.10;99.90
3614;DHT22;1821;50.936;6.854;2023-03-26T02:48:41;9.10;99.90
3614;DHT22;1821;50.936;6.854;2023-03-26T02:49:24;9.00;99.90
3614;DHT22;1821;50.936;6.854;2023-03-26T02:50:07;9.00;99.90
3614;DHT22;1821;50.936;6.854;2023-03-26T02:50:49;9.30;99.90
3614;DHT22;1821;50.936;6.854;2023-03-26T02:51:35;9.10;99.90
3614;DHT22;1821;50.936;6.854;2023-03-26T02:52:20;9.00;99.90
3614;DHT22;1821;50.936;6.854;2023-03-26T02:53:02;9.00;99.90
3614;DHT22;1821;50.936;6.854;2023-03-26T02:53:44;9.10;99.90
3614;DHT22;1821;50.936;6.854;2023-03-26T02:54:26;9.10;99.90
3614;DHT22;1821;50.936;6.854;2023-03-26T02:55:08;9.50;99.90
3614;DHT22;1821;50.936;6.854;2023-03-26T02:55:50;9.10;99.90
3614;DHT22;1821;50.936;6.854;2023-03-26T02:56:33;9.60;99.90
3614;DHT22;1821;50.936;6.854;2023-03-26T02:57:17;9.20;99.90
3614;DHT22;1821;50.936;6.854;2023-03-26T02:57:59;8.70;99.90
3614;DHT22;1821;50.936;6.854;2023-03-26T02:59:23;8.50;99.90
3614;DHT22;1821;50.936;6.854;2023-03-26T03:00:05;9.30;99.90
3614;DHT22;1821;50.936;6.854;2023-03-26T03:00:53;9.20;99.90
3614;DHT22;1821;50.936;6.854;2023-03-26T03:01:35;9.00;99.90
3614;DHT22;1821;50.936;6.854;2023-03-26T03:02:18;9.10;99.90
3614;DHT22;1821;50.936;6.854;2023-03-26T03:03:01;9.10;99.90
3614;DHT22;1821;50.936;6.854;2023-03-26T03:03:47;9.00;99.90
3614;DHT22;1821;50.936;6.854;2023-03-26T03:04:31;8.90;99.90
3614;DHT22;1821;50.936;6.854;2023-03-26T03:05:14;8.70;99.90
3614;DHT22;1821;50.936;6.854;2023-03-26T03:05:56;8.80;99.90
3614;DHT22;1821;50.936;6.854;2023-03-26T03:06:38;8.80;99.90
3614;DHT22;1821;50.936;6.854;2023-03-26T03:07:21;8.90;99.90
3614;DHT22;1821;50.936;6.854;2023-03-26T03:08:07;8.90;99.90
3614;DHT22;1821;50.936;6.854;2023-03-26T03:08:49;8.80;99.90
3614;DHT22;1821;50.936;6.854;2023-03-26T03:09:31;8.80;99.90
3614;DHT22;1821;50.936;6.854;2023-03-26T03:10:15;8.10;99.90
3614;DHT22;1821;50.936;6.854;2023-03-26T03:11:47;8.80;99.90
3614;DHT22;1821;50.936;6.854;2023-03-26T03:12:29;8.80;99.90
3614;DHT22;1821;50.936;6.854;2023-03-26T03:13:53;8.70;99.90
3614;DHT22;1821;50.936;6.854;2023-03-26T03:14:35;8.90;99.90
3614;DHT22;1821;50.936;6.854;2023-03-26T03:15:19;9.00;99.90
3614;DHT22;1821;50.936;6.854;2023-03-26T03:16:01;9.10;99.90
3614;DHT22;1821;50.936;6.854;2023-03-26T03:16:43;8.70;99.90
3614;DHT22;1821;50.936;6.854;2023-03-26T03:17:25;9.20;99.90
3614;DHT22;1821;50.936;6.854;2023-03-26T03:18:07;8.70;99.90
3614;DHT22;1821;50.936;6.854;2023-03-26T03:18:49;9.30;99.90
3614;DHT22;1821;50.936;6.854;2023-03-26T03:19:38;8.90;99.90
3614;DHT22;1821;50.936;6.854;2023-03-26T03:20:20;8.90;99.90
3614;DHT22;1821;50.936;6.854;2023-03-26T03:21:03;8.80;99.90
3614;DHT22;1821;50.936;6.854;2023-03-26T03:21:46;8.70;99.90
3614;DHT22;1821;50.936;6.854;2023-03-26T03:22:30;8.80;99.90
3614;DHT22;1821;50.936;6.854;2023-03-26T03:23:12;9.00;99.90
3614;DHT22;1821;50.936;6.854;2023-03-26T03:23:57;8.70;99.90
3614;DHT22;1821;50.936;6.854;2023-03-26T03:24:41;8.80;99.90
3614;DHT22;1821;50.936;6.854;2023-03-26T03:25:24;9.00;99.90
3614;DHT22;1821;50.936;6.854;2023-03-26T03:26:12;8.80;99.90
3614;DHT22;1821;50.936;6.854;2023-03-26T03:26:54;8.70;1.00
3614;DHT22;1821;50.936;6.854;2023-03-26T03:27:37;8.90;1.00
3614;DHT22;1821;50.936;6.854;2023-03-26T03:28:22;8.90;99.90
3614;DHT22;1821;50.936;6.854;2023-03-26T03:29:04;8.70;99.90
3614;DHT22;1821;50.936;6.854;2023-03-26T03:29:47;8.60;99.90
3614;DHT22;1821;50.936;6.854;2023-03-26T03:30:29;8.80;99.90
3614;DHT22;1821;50.936;6.854;2023-03-26T03:31:11;8.90;99.90
3614;DHT22;1821;50.936;6.854;2023-03-26T03:31:53;8.90;99.90
3614;DHT22;1821;50.936;6.854;2023-03-26T03:32:36;9.00;99.90
3614;DHT22;1821;50.936;6.854;2023-03-26T03:33:20;8.70;99.90
3614;DHT22;1821;50.936;6.854;2023-03-26T03:34:03;9.00;99.90
3614;DHT22;1821;50.936;6.854;2023-03-26T03:34:48;8.90;99.90
3614;DHT22;1821;50.936;6.854;2023-03-26T03:35:31;8.80;99.90
3614;DHT22;1821;50.936;6.854;2023-03-26T03:36:15;8.70;99.90
3614;DHT22;1821;50.936;6.854;2023-03-26T03:37:02;8.60;1.00
3614;DHT22;1821;50.936;6.854;2023-03-26T03:37:44;8.60;99.90
3614;DHT22;1821;50.936;6.854;2023-03-26T03:38:26;8.60;1.00
3614;DHT22;1821;50.936;6.854;2023-03-26T03:39:08;8.70;1.00
3614;DHT22;1821;50.936;6.854;2023-03-26T03:39:52;8.90;99.90
3614;DHT22;1821;50.936;6.854;2023-03-26T03:40:34;9.00;99.90
3614;DHT22;1821;50.936;6.854;2023-03-26T03:41:16;9.00;99.90
3614;DHT22;1821;50.936;6.854;2023-03-26T03:41:59;8.60;99.90
3614;DHT22;1821;50.936;6.854;2023-03-26T03:42:41;9.10;1.00
3614;DHT22;1821;50.936;6.854;2023-03-26T03:43:25;8.80;1.00
3614;DHT22;1821;50.936;6.854;2023-03-26T03:44:10;8.60;1.00
3614;DHT22;1821;50.936;6.854;2023-03-26T03:44:52;9.10;1.00
3614;DHT22;1821;50.936;6.854;2023-03-26T03:46:16;9.30;99.90
3614;DHT22;1821;50.936;6.854;2023-03-26T03:46:58;8.90;1.00
3614;DHT22;1821;50.936;6.854;2023-03-26T03:47:40;8.90;1.00
3614;DHT22;1821;50.936;6.854;2023-03-26T03:48:22;9.00;1.00
3614;DHT22;1821;50.936;6.854;2023-03-26T03:49:04;8.70;1.00
3614;DHT22;1821;50.936;6.854;2023-03-26T03:49:46;8.60;1.00
3614;DHT22;1821;50.936;6.854;2023-03-26T03:50:30;8.60;1.00
3614;DHT22;1821;50.936;6.854;2023-03-26T03:51:16;8.60;1.00
3614;DHT22;1821;50.936;6.854;2023-03-26T03:51:59;9.00;1.00
3614;DHT22;1821;50.936;6.854;2023-03-26T03:52:41;8.50;1.00
3614;DHT22;1821;50.936;6.854;2023-03-26T03:53:23;8.80;99.90
3614;DHT22;1821;50.936;6.854;2023-03-26T03:54:09;9.10;99.90
3614;DHT22;1821;50.936;6.854;2023-03-26T03:54:51;8.50;1.00
3614;DHT22;1821;50.936;6.854;2023-03-26T03:55:35;8.70;1.00
3614;DHT22;1821;50.936;6.854;2023-03-26T03:56:19;8.60;8.90
3614;DHT22;1821;50.936;6.854;2023-03-26T03:57:04;8.80;1.00
3614;DHT22;1821;50.936;6.854;2023-03-26T03:57:46;8.70;1.00
3614;DHT22;1821;50.936;6.854;2023-03-26T03:58:30;8.90;1.00
3614;DHT22;1821;50.936;6.854;2023-03-26T03:59:12;9.00;5.80
3614;DHT22;1821;50.936;6.854;2023-03-26T03:59:56;8.90;57.40
3614;DHT22;1821;50.936;6.854;2023-03-26T04:00:39;8.60;2.20
3614;DHT22;1821;50.936;6.854;2023-03-26T04:01:22;8.60;99.90
3614;DHT22;1821;50.936;6.854;2023-03-26T04:02:04;8.90;99.90
3614;DHT22;1821;50.936;6.854;2023-03-26T04:02:46;8.50;99.90
3614;DHT22;1821;50.936;6.854;2023-03-26T04:03:30;8.50;99.90
3614;DHT22;1821;50.936;6.854;2023-03-26T04:04:15;8.70;99.90
3614;DHT22;1821;50.936;6.854;2023-03-26T04:04:57;8.60;1.00
3614;DHT22;1821;50.936;6.854;2023-03-26T04:05:39;8.90;1.00
3614;DHT22;1821;50.936;6.854;2023-03-26T04:06:21;8.60;1.00
3614;DHT22;1821;50.936;6.854;2023-03-26T04:07:05;8.60;1.00
3614;DHT22;1821;50.936;6.854;2023-03-26T04:07:47;8.90;30.70
3614;DHT22;1821;50.936;6.854;2023-03-26T04:08:30;8.50;1.00
3614;DHT22;1821;50.936;6.854;2023-03-26T04:09:13;8.60;1.00
3614;DHT22;1821;50.936;6.854;2023-03-26T04:09:55;8.40;1.00
3614;DHT22;1821;50.936;6.854;2023-03-26T04:10:37;8.50;1.00
3614;DHT22;1821;50.936;6.854;2023-03-26T04:11:19;8.80;1.00
3614;DHT22;1821;50.936;6.854;2023-03-26T04:12:01;8.80;1.00
3614;DHT22;1821;50.936;6.854;2023-03-26T04:12:43;8.50;1.00
3614;DHT22;1821;50.936;6.854;2023-03-26T04:13:25;8.80;1.00
3614;DHT22;1821;50.936;6.854;2023-03-26T04:14:07;8.50;99.90
3614;DHT22;1821;50.936;6.854;2023-03-26T04:14:50;8.60;99.90
3614;DHT22;1821;50.936;6.854;2023-03-26T04:15:32;8.70;99.90
3614;DHT22;1821;50.936;6.854;2023-03-26T04:16:16;8.70;1.00
3614;DHT22;1821;50.936;6.854;2023-03-26T04:16:58;8.50;99.90
3614;DHT22;1821;50.936;6.854;2023-03-26T04:17:41;8.70;99.90
3614;DHT22;1821;50.936;6.854;2023-03-26T04:18:25;8.70;99.90
3614;DHT22;1821;50.936;6.854;2023-03-26T04:19:10;8.60;99.90
3614;DHT22;1821;50.936;6.854;2023-03-26T04:19:55;9.10;99.90
3614;DHT22;1821;50.936;6.854;2023-03-26T04:20:40;8.60;99.90
3614;DHT22;1821;50.936;6.854;2023-03-26T04:21:28;8.50;99.90
3614;DHT22;1821;50.936;6.854;2023-03-26T04:22:11;8.50;99.90
3614;DHT22;1821;50.936;6.854;2023-03-26T04:22:53;8.50;1.00
3614;DHT22;1821;50.936;6.854;2023-03-26T04:23:37;8.40;1.00
3614;DHT22;1821;50.936;6.854;2023-03-26T04:24:19;8.50;1.00
3614;DHT22;1821;50.936;6.854;2023-03-26T04:25:03;8.60;1.00
3614;DHT22;1821;50.936;6.854;2023-03-26T04:25:48;8.70;1.00
3614;DHT22;1821;50.936;6.854;2023-03-26T04:26:31;8.80;1.00
3614;DHT22;1821;50.936;6.854;2023-03-26T04:27:19;8.60;1.00
3614;DHT22;1821;50.936;6.854;2023-03-26T04:28:08;8.80;1.00
3614;DHT22;1821;50.936;6.854;2023-03-26T04:28:59;8.70;1.00
3614;DHT22;1821;50.936;6.854;2023-03-26T04:29:47;8.60;99.90
3614;DHT22;1821;50.936;6.854;2023-03-26T04:30:31;8.40;1.00
3614;DHT22;1821;50.936;6.854;2023-03-26T04:31:19;8.40;23.40
3614;DHT22;1821;50.936;6.854;2023-03-26T04:32:05;8.50;67.60
3614;DHT22;1821;50.936;6.854;2023-03-26T04:32:47;8.50;1.00
3614;DHT22;1821;50.936;6.854;2023-03-26T04:33:32;8.40;1.00
3614;DHT22;1821;50.936;6.854;2023-03-26T04:34:24;8.30;99.90
3614;DHT22;1821;50.936;6.854;2023-03-26T04:35:06;8.60;99.90
3614;DHT22;1821;50.936;6.854;2023-03-26T04:35:48;8.80;99.90
3614;DHT22;1821;50.936;6.854;2023-03-26T04:36:30;8.60;99.90
3614;DHT22;1821;50.936;6.854;2023-03-26T04:37:29;8.70;1.00
3614;DHT22;1821;50.936;6.854;2023-03-26T04:38:22;8.40;1.00
3614;DHT22;1821;50.936;6.854;2023-03-26T04:39:04;8.40;99.90
3614;DHT22;1821;50.936;6.854;2023-03-26T04:39:47;8.90;99.90
3614;DHT22;1821;50.936;6.854;2023-03-26T04:40:32;8.30;99.90
3614;DHT22;1821;50.936;6.854;2023-03-26T04:41:15;8.50;99.90
3614;DHT22;1821;50.936;6.854;2023-03-26T04:41:57;8.80;99.90
3614;DHT22;1821;50.936;6.854;2023-03-26T04:42:40;8.50;8.90
3614;DHT22;1821;50.936;6.854;2023-03-26T04:43:28;8.80;90.10
3614;DHT22;1821;50.936;6.854;2023-03-26T04:44:11;9.00;1.00
3614;DHT22;1821;50.936;6.854;2023-03-26T04:44:55;8.60;1.00
3614;DHT22;1821;50.936;6.854;2023-03-26T04:45:36;12.30;1.00
3614;DHT22;1821;50.936;6.854;2023-03-26T04:46:20;8.50;1.00
3614;DHT22;1821;50.936;6.854;2023-03-26T04:47:04;8.40;1.00
3614;DHT22;1821;50.936;6.854;2023-03-26T04:47:47;8.30;1.00
3614;DHT22;1821;50.936;6.854;2023-03-26T04:48:30;8.80;1.00
3614;DHT22;1821;50.936;6.854;2023-03-26T04:49:11;8.60;99.90
3614;DHT22;1821;50.936;6.854;2023-03-26T04:49:56;8.50;99.90
3614;DHT22;1821;50.936;6.854;2023-03-26T04:50:39;8.90;99.90
3614;DHT22;1821;50.936;6.854;2023-03-26T04:51:25;8.70;1.00
3614;DHT22;1821;50.936;6.854;2023-03-26T04:52:10;8.80;1.00
3614;DHT22;1821;50.936;6.854;2023-03-26T04:52:54;8.60;1.00
3614;DHT22;1821;50.936;6.854;2023-03-26T04:53:37;8.50;1.00
3614;DHT22;1821;50.936;6.854;2023-03-26T04:54:21;8.70;1.00
3614;DHT22;1821;50.936;6.854;2023-03-26T04:55:11;8.40;1.00
3614;DHT22;1821;50.936;6.854;2023-03-26T04:56:19;8.40;99.90
3614;DHT22;1821;50.936;6.854;2023-03-26T04:57:11;8.70;99.90
3614;DHT22;1821;50.936;6.854;2023-03-26T04:57:56;8.40;99.90
3614;DHT22;1821;50.936;6.854;2023-03-26T04:58:40;8.10;99.90
3614;DHT22;1821;50.936;6.854;2023-03-26T04:59:26;8.40;1.00
3614;DHT22;1821;50.936;6.854;2023-03-26T05:00:14;8.70;1.00
3614;DHT22;1821;50.936;6.854;2023-03-26T05:01:01;8.40;99.90
3614;DHT22;1821;50.936;6.854;2023-03-26T05:01:52;8.60;1.00
3614;DHT22;1821;50.936;6.854;2023-03-26T05:02:34;8.40;1.00
3614;DHT22;1821;50.936;6.854;2023-03-26T05:03:20;8.70;1.00
3614;DHT22;1821;50.936;6.854;2023-03-26T05:04:01;8.70;99.90
3614;DHT22;1821;50.936;6.854;2023-03-26T05:04:46;8.60;99.90
3614;DHT22;1821;50.936;6.854;2023-03-26T05:05:29;8.70;99.90
3614;DHT22;1821;50.936;6.854;2023-03-26T05:06:11;8.80;99.90
3614;DHT22;1821;50.936;6.854;2023-03-26T05:06:55;8.60;99.90
3614;DHT22;1821;50.936;6.854;2023-03-26T05:07:40;8.50;1.00
3614;DHT22;1821;50.936;6.854;2023-03-26T05:08:23;8.30;99.90
3614;DHT22;1821;50.936;6.854;2023-03-26T05:09:05;8.80;99.90
3614;DHT22;1821;50.936;6.854;2023-03-26T05:09:47;8.80;1.00
3614;DHT22;1821;50.936;6.854;2023-03-26T05:10:29;8.50;99.90
3614;DHT22;1821;50.936;6.854;2023-03-26T05:11:11;8.40;99.90
3614;DHT22;1821;50.936;6.854;2023-03-26T05:11:53;8.40;99.90
3614;DHT22;1821;50.936;6.854;2023-03-26T05:12:36;8.50;99.90
3614;DHT22;1821;50.936;6.854;2023-03-26T05:13:18;8.20;1.00
3614;DHT22;1821;50.936;6.854;2023-03-26T05:13:59;8.70;99.90
3614;DHT22;1821;50.936;6.854;2023-03-26T05:14:41;8.40;99.90
3614;DHT22;1821;50.936;6.854;2023-03-26T05:15:23;8.70;1.00
3614;DHT22;1821;50.936;6.854;2023-03-26T05:16:05;8.30;99.90
3614;DHT22;1821;50.936;6.854;2023-03-26T05:16:48;8.90;99.90